createdAt,value
2019-03-15T00:00:07.717Z,2.90
2019-03-15T00:02:35.840Z,2.50
2019-03-15T00:05:03.955Z,3.05
2019-03-15T00:07:31.810Z,2.50
2019-03-15T00:10:00.277Z,3.75
2019-03-15T00:12:28.464Z,3.03
2019-03-15T00:14:56.548Z,2.80
2019-03-15T00:17:24.697Z,2.58
2019-03-15T00:19:53.078Z,2.85
2019-03-15T00:22:20.935Z,2.42
2019-03-15T00:24:49.129Z,2.62
2019-03-15T00:27:17.430Z,3.72
2019-03-15T00:29:45.286Z,3.30
2019-03-15T00:32:14.457Z,3.33
2019-03-15T00:34:42.945Z,4.22
2019-03-15T00:37:11.346Z,4.03
2019-03-15T00:39:39.178Z,3.30
2019-03-15T00:42:07.057Z,3.08
2019-03-15T00:44:35.108Z,3.37
2019-03-15T00:47:03.200Z,4.00
2019-03-15T00:49:31.290Z,4.10
2019-03-15T00:51:59.473Z,4.32
2019-03-15T00:54:27.319Z,3.85
2019-03-15T00:56:55.296Z,3.58
2019-03-15T00:59:23.141Z,4.35
2019-03-15T01:01:51.209Z,4.07
2019-03-15T01:04:19.287Z,3.42
2019-03-15T01:06:47.353Z,3.12
2019-03-15T01:09:15.534Z,4.20
2019-03-15T01:11:45.588Z,3.30
2019-03-15T01:14:11.151Z,3.65
2019-03-15T01:16:39.038Z,3.35
2019-03-15T01:19:07.316Z,3.80
2019-03-15T01:21:35.361Z,3.20
2019-03-15T01:24:03.153Z,2.70
2019-03-15T01:26:31.621Z,2.92
2019-03-15T01:28:59.667Z,2.80
2019-03-15T01:31:27.473Z,3.80
2019-03-15T01:33:55.892Z,2.92
2019-03-15T01:36:24.002Z,3.17
2019-03-15T01:38:52.186Z,3.67
2019-03-15T01:41:20.385Z,3.05
2019-03-15T01:43:48.234Z,2.58
2019-03-15T01:46:16.369Z,3.50
2019-03-15T01:48:44.562Z,3.15
2019-03-15T01:51:12.111Z,2.90
2019-03-15T01:53:40.200Z,2.35
2019-03-15T01:56:08.883Z,2.70
2019-03-15T01:58:36.930Z,2.80
2019-03-15T02:01:05.037Z,3.15
2019-03-15T02:03:33.080Z,3.25
2019-03-15T02:06:00.942Z,3.67
2019-03-15T02:08:29.031Z,4.28
2019-03-15T02:10:57.078Z,3.75
2019-03-15T02:13:25.160Z,4.57
2019-03-15T02:15:53.235Z,3.90
2019-03-15T02:18:21.367Z,4.18
2019-03-15T02:20:50.128Z,3.53
2019-03-15T02:23:19.718Z,3.37
2019-03-15T02:25:48.858Z,3.30
2019-03-15T02:28:18.448Z,2.50
2019-03-15T02:30:48.679Z,3.72
2019-03-15T02:33:18.315Z,2.85
2019-03-15T02:35:47.416Z,2.67
2019-03-15T02:38:16.972Z,2.50
2019-03-15T02:40:45.823Z,2.65
2019-03-15T02:43:13.929Z,3.25
2019-03-15T02:45:45.562Z,2.62
2019-03-15T02:48:13.854Z,3.10
2019-03-15T02:50:41.877Z,3.33
2019-03-15T02:53:09.692Z,3.28
2019-03-15T02:55:38.048Z,3.00
2019-03-15T02:58:05.921Z,3.35
2019-03-15T03:00:34.079Z,3.35
2019-03-15T03:03:02.162Z,2.87
2019-03-15T03:05:30.214Z,3.80
2019-03-15T03:07:58.270Z,3.40
2019-03-15T03:10:26.404Z,3.22
2019-03-15T03:12:55.631Z,3.60
2019-03-15T03:15:25.056Z,2.85
2019-03-15T03:17:52.433Z,2.85
2019-03-15T03:20:21.149Z,3.03
2019-03-15T03:22:49.090Z,3.58
2019-03-15T03:25:17.438Z,3.53
2019-03-15T03:27:45.772Z,3.15
2019-03-15T03:30:16.577Z,3.85
2019-03-15T03:32:44.111Z,3.50
2019-03-15T03:35:10.954Z,3.65
2019-03-15T03:37:38.815Z,3.70
2019-03-15T03:40:07.149Z,3.20
2019-03-15T03:42:35.563Z,3.92
2019-03-15T03:45:03.678Z,3.25
2019-03-15T03:47:32.849Z,3.62
2019-03-15T03:50:00.379Z,3.00
2019-03-15T03:52:28.378Z,3.85
2019-03-15T03:54:57.667Z,4.20
2019-03-15T03:57:24.944Z,4.25
2019-03-15T03:59:53.002Z,3.80
2019-03-15T04:02:21.205Z,3.85
2019-03-15T04:04:49.234Z,3.90
2019-03-15T04:07:17.514Z,4.15
2019-03-15T04:09:45.748Z,4.35
2019-03-15T04:12:13.869Z,3.50
2019-03-15T04:14:41.917Z,3.65
2019-03-15T04:17:09.920Z,4.47
2019-03-15T04:19:37.999Z,3.95
2019-03-15T04:22:06.047Z,4.10
2019-03-15T04:24:35.052Z,3.87
2019-03-15T04:27:02.798Z,4.47
2019-03-15T04:29:30.680Z,4.97
2019-03-15T04:31:58.637Z,5.22
2019-03-15T04:34:28.331Z,5.60
2019-03-15T04:36:54.590Z,4.68
2019-03-15T04:39:22.670Z,4.45
2019-03-15T04:41:50.507Z,5.35
2019-03-15T04:44:18.685Z,4.68
2019-03-15T04:46:47.300Z,4.70
2019-03-15T04:49:15.255Z,3.70
2019-03-15T04:51:43.037Z,3.92
2019-03-15T04:54:13.404Z,4.55
2019-03-15T04:56:41.222Z,4.45
2019-03-15T04:59:09.393Z,4.82
2019-03-15T05:01:37.759Z,4.28
2019-03-15T05:04:05.617Z,5.62
2019-03-15T05:06:33.694Z,6.50
2019-03-15T05:09:01.562Z,6.37
2019-03-15T05:11:30.149Z,5.82
2019-03-15T05:13:58.990Z,6.12
2019-03-15T05:16:26.103Z,5.55
2019-03-15T05:18:53.829Z,5.95
2019-03-15T05:21:23.301Z,4.78
2019-03-15T05:23:53.441Z,4.32
2019-03-15T05:26:23.755Z,4.05
2019-03-15T05:28:51.973Z,3.55
2019-03-15T05:31:20.224Z,4.22
2019-03-15T05:33:48.006Z,3.60
2019-03-15T05:36:15.876Z,4.28
2019-03-15T05:38:44.231Z,3.28
2019-03-15T05:41:12.322Z,3.47
2019-03-15T05:43:40.387Z,4.70
2019-03-15T05:46:09.115Z,3.70
2019-03-15T05:48:37.235Z,3.37
2019-03-15T05:51:05.098Z,3.60
2019-03-15T05:53:33.298Z,3.75
2019-03-15T05:56:01.466Z,3.25
2019-03-15T05:58:29.527Z,4.55
2019-03-15T06:00:57.893Z,4.50
2019-03-15T06:03:25.687Z,4.53
2019-03-15T06:05:53.527Z,5.57
2019-03-15T06:08:21.622Z,5.30
2019-03-15T06:10:49.779Z,4.85
2019-03-15T06:13:17.827Z,4.75
2019-03-15T06:15:46.012Z,4.50
2019-03-15T06:18:14.087Z,4.37
2019-03-15T06:20:42.285Z,4.07
2019-03-15T06:23:10.932Z,4.28
2019-03-15T06:25:39.614Z,4.97
2019-03-15T06:28:07.392Z,4.28
2019-03-15T06:30:35.766Z,4.37
2019-03-15T06:33:03.650Z,3.95
2019-03-15T06:35:31.437Z,4.93
2019-03-15T06:37:59.979Z,4.70
2019-03-15T06:40:27.779Z,4.70
2019-03-15T06:42:55.957Z,4.40
2019-03-15T06:45:24.124Z,4.72
2019-03-15T06:47:52.387Z,5.30
2019-03-15T06:50:20.501Z,5.30
2019-03-15T06:52:48.999Z,5.40
2019-03-15T06:55:17.339Z,6.93
2019-03-15T06:57:45.498Z,6.93
2019-03-15T07:00:13.781Z,8.02
2019-03-15T07:02:41.938Z,9.77
2019-03-15T07:05:12.134Z,10.27
2019-03-15T07:07:38.184Z,10.88
2019-03-15T07:10:05.641Z,10.40
2019-03-15T07:12:33.804Z,10.23
2019-03-15T07:15:02.096Z,12.68
2019-03-15T07:17:30.179Z,12.77
2019-03-15T07:19:57.937Z,11.52
2019-03-15T07:22:25.781Z,11.98
2019-03-15T07:24:53.877Z,11.80
2019-03-15T07:27:22.024Z,11.05
2019-03-15T07:29:49.743Z,10.52
2019-03-15T07:32:17.957Z,9.45
2019-03-15T07:34:46.019Z,9.82
2019-03-15T07:37:14.439Z,9.02
2019-03-15T07:39:41.982Z,8.02
2019-03-15T07:42:10.156Z,7.80
2019-03-15T07:44:38.336Z,8.80
2019-03-15T07:47:06.402Z,9.88
2019-03-15T07:49:34.662Z,9.25
2019-03-15T07:52:04.107Z,9.95
2019-03-15T07:54:37.973Z,10.60
2019-03-15T07:56:58.779Z,14.87
2019-03-15T07:59:28.024Z,13.20
2019-03-15T08:01:55.408Z,9.63
2019-03-15T08:04:23.320Z,10.90
2019-03-15T08:06:51.683Z,11.52
2019-03-15T08:09:19.143Z,11.50
2019-03-15T08:11:47.218Z,11.23
2019-03-15T08:14:15.697Z,10.27
2019-03-15T08:16:43.765Z,10.00
2019-03-15T08:19:11.935Z,11.15
2019-03-15T08:21:40.102Z,9.48
2019-03-15T08:24:08.170Z,9.50
2019-03-15T08:26:36.241Z,13.80
2019-03-15T08:29:04.322Z,9.73
2019-03-15T08:31:32.501Z,7.50
2019-03-15T08:34:01.151Z,5.72
2019-03-15T08:36:29.262Z,5.75
2019-03-15T08:38:57.104Z,4.55
2019-03-15T08:41:25.164Z,4.95
2019-03-15T08:43:53.564Z,4.35
2019-03-15T08:46:21.633Z,3.80
2019-03-15T08:48:50.080Z,4.18
2019-03-15T08:51:18.697Z,4.75
2019-03-15T08:53:46.770Z,4.43
2019-03-15T08:56:14.839Z,5.68
2019-03-15T08:58:43.563Z,4.15
2019-03-15T09:01:11.705Z,5.93
2019-03-15T09:03:39.739Z,4.57
2019-03-15T09:06:08.129Z,6.15
2019-03-15T09:08:37.389Z,4.87
2019-03-15T09:11:04.160Z,5.80
2019-03-15T09:13:32.955Z,4.45
2019-03-15T09:16:00.727Z,5.22
2019-03-15T09:18:28.777Z,5.15
2019-03-15T09:20:56.883Z,4.12
2019-03-15T09:23:24.671Z,5.07
2019-03-15T09:25:52.810Z,4.20
2019-03-15T09:28:20.671Z,6.12
2019-03-15T09:30:48.766Z,4.22
2019-03-15T09:33:16.810Z,5.20
2019-03-15T09:35:44.902Z,3.87
2019-03-15T09:38:12.985Z,5.18
2019-03-15T09:40:41.061Z,4.40
2019-03-15T09:43:08.481Z,5.65
2019-03-15T09:45:36.243Z,4.60
2019-03-15T09:48:04.322Z,4.10
2019-03-15T09:50:39.957Z,4.37
2019-03-15T09:53:01.103Z,4.50
2019-03-15T09:55:33.335Z,4.75
2019-03-15T09:57:57.471Z,4.25
2019-03-15T10:00:25.630Z,4.47
2019-03-15T10:02:56.019Z,3.65
2019-03-15T10:05:22.141Z,4.00
2019-03-15T10:07:50.319Z,3.97
2019-03-15T10:10:19.199Z,4.18
2019-03-15T10:12:46.976Z,4.62
2019-03-15T10:15:15.061Z,4.65
2019-03-15T10:17:43.765Z,4.70
2019-03-15T10:20:12.767Z,3.37
2019-03-15T10:22:39.885Z,3.00
2019-03-15T10:25:08.361Z,3.30
2019-03-15T10:27:36.233Z,4.07
2019-03-15T10:30:04.907Z,5.70
2019-03-15T10:32:32.714Z,4.60
2019-03-15T10:35:00.971Z,4.72
2019-03-15T10:37:43.682Z,4.37
2019-03-15T10:40:43.848Z,4.68
2019-03-15T10:43:11.952Z,4.20
2019-03-15T10:45:40.024Z,4.75
2019-03-15T10:48:08.255Z,4.60
2019-03-15T10:50:35.959Z,4.15
2019-03-15T10:53:04.040Z,4.55
2019-03-15T10:55:32.597Z,3.70
2019-03-15T10:58:01.057Z,3.90
2019-03-15T11:00:29.175Z,3.78
2019-03-15T11:02:57.270Z,4.00
2019-03-15T11:05:25.323Z,3.75
2019-03-15T11:07:53.175Z,3.42
2019-03-15T11:10:21.642Z,3.62
2019-03-15T11:12:49.724Z,3.47
2019-03-15T11:15:17.797Z,3.33
2019-03-15T11:17:45.909Z,3.17
2019-03-15T11:20:14.077Z,3.83
2019-03-15T11:22:41.921Z,3.45
2019-03-15T11:25:10.004Z,4.35
2019-03-15T11:27:38.056Z,3.37
2019-03-15T11:30:06.353Z,3.87
2019-03-15T11:32:34.499Z,3.22
2019-03-15T11:35:02.583Z,4.72
2019-03-15T11:37:30.337Z,3.17
2019-03-15T11:39:58.112Z,4.60
2019-03-15T11:42:26.187Z,4.00
2019-03-15T11:44:53.616Z,3.67
2019-03-15T11:47:21.823Z,4.87
2019-03-15T11:49:49.973Z,4.25
2019-03-15T11:52:18.039Z,4.57
2019-03-15T11:54:46.127Z,5.03
2019-03-15T11:57:14.307Z,4.35
2019-03-15T11:59:41.762Z,4.50
2019-03-15T12:02:10.907Z,3.00
2019-03-15T12:04:38.387Z,4.68
2019-03-15T12:07:06.189Z,4.55
2019-03-15T12:09:34.267Z,4.30
2019-03-15T12:12:02.353Z,3.72
2019-03-15T12:14:40.458Z,4.53
2019-03-15T12:16:59.261Z,4.75
2019-03-15T12:19:27.372Z,4.25
2019-03-15T12:22:05.691Z,4.65
2019-03-15T12:24:23.905Z,4.00
2019-03-15T12:26:51.976Z,4.35
2019-03-15T12:29:19.847Z,3.97
2019-03-15T12:31:48.169Z,3.95
2019-03-15T12:34:16.295Z,3.80
2019-03-15T12:36:44.336Z,4.37
2019-03-15T12:39:13.115Z,3.72
2019-03-15T12:41:41.301Z,4.15
2019-03-15T12:44:10.618Z,4.05
2019-03-15T12:46:37.751Z,4.10
2019-03-15T12:49:05.808Z,4.68
2019-03-15T12:51:33.944Z,3.55
2019-03-15T12:54:02.101Z,4.25
2019-03-15T12:56:30.131Z,3.30
2019-03-15T12:58:58.638Z,2.80
2019-03-15T13:01:26.396Z,3.47
2019-03-15T13:03:54.445Z,3.30
2019-03-15T13:06:22.546Z,2.55
2019-03-15T13:08:50.724Z,3.40
2019-03-15T13:11:18.493Z,2.80
2019-03-15T13:13:46.557Z,3.05
2019-03-15T13:16:14.710Z,2.85
2019-03-15T13:18:42.786Z,3.03
2019-03-15T13:21:10.548Z,2.50
2019-03-15T13:23:38.672Z,2.67
2019-03-15T13:26:06.805Z,2.92
2019-03-15T13:28:34.881Z,2.67
2019-03-15T13:31:03.060Z,3.50
2019-03-15T13:33:31.410Z,2.83
2019-03-15T13:35:59.477Z,3.28
2019-03-15T13:38:27.374Z,3.08
2019-03-15T13:40:55.417Z,2.92
2019-03-15T13:43:23.496Z,3.15
2019-03-15T13:45:52.275Z,4.40
2019-03-15T13:48:20.061Z,4.47
2019-03-15T13:50:47.932Z,3.62
2019-03-15T13:53:16.289Z,4.12
2019-03-15T13:55:44.335Z,3.58
2019-03-15T13:58:12.546Z,3.42
2019-03-15T14:00:40.932Z,4.18
2019-03-15T14:03:10.019Z,3.42
2019-03-15T14:05:38.081Z,4.30
2019-03-15T14:08:11.569Z,3.67
2019-03-15T14:10:34.220Z,3.70
2019-03-15T14:13:01.674Z,3.40
2019-03-15T14:15:30.060Z,4.25
2019-03-15T14:17:58.160Z,3.45
2019-03-15T14:20:25.600Z,4.07
2019-03-15T14:22:53.677Z,3.15
2019-03-15T14:25:21.430Z,3.72
2019-03-15T14:27:50.587Z,4.12
2019-03-15T14:30:18.907Z,4.30
2019-03-15T14:32:46.982Z,3.78
2019-03-15T14:35:15.019Z,4.00
2019-03-15T14:37:43.233Z,4.18
2019-03-15T14:40:11.893Z,4.55
2019-03-15T14:42:39.940Z,4.40
2019-03-15T14:45:08.827Z,3.92
2019-03-15T14:47:36.944Z,5.05
2019-03-15T14:50:05.305Z,4.18
2019-03-15T14:52:33.661Z,3.87
2019-03-15T14:55:01.854Z,5.35
2019-03-15T14:57:29.943Z,3.25
2019-03-15T14:59:58.033Z,3.53
2019-03-15T15:02:26.479Z,4.65
2019-03-15T15:04:54.237Z,3.30
2019-03-15T15:07:22.093Z,2.95
2019-03-15T15:09:49.979Z,3.33
2019-03-15T15:12:17.736Z,3.58
2019-03-15T15:14:45.492Z,4.10
2019-03-15T15:17:13.580Z,4.57
2019-03-15T15:19:41.658Z,5.20
2019-03-15T15:22:09.738Z,5.20
2019-03-15T15:24:37.829Z,4.20
2019-03-15T15:27:06.061Z,4.87
2019-03-15T15:29:34.515Z,4.82
2019-03-15T15:32:02.299Z,3.25
2019-03-15T15:34:30.393Z,3.42
2019-03-15T15:36:58.871Z,4.57
2019-03-15T15:39:26.724Z,2.83
2019-03-15T15:41:58.374Z,3.62
2019-03-15T15:44:23.417Z,3.80
2019-03-15T15:46:51.245Z,3.87
2019-03-15T15:49:19.328Z,3.75
2019-03-15T15:51:47.779Z,4.45
2019-03-15T15:54:15.592Z,3.70
2019-03-15T15:56:43.633Z,4.68
2019-03-15T15:59:11.703Z,4.53
2019-03-15T16:01:39.817Z,4.18
2019-03-15T16:04:08.746Z,3.65
2019-03-15T16:06:36.876Z,2.78
2019-03-15T16:09:07.318Z,3.53
2019-03-15T16:11:35.420Z,3.25
2019-03-15T16:14:03.726Z,4.60
2019-03-15T16:16:31.795Z,3.42
2019-03-15T16:18:59.562Z,3.12
2019-03-15T16:21:27.628Z,3.95
2019-03-15T16:23:55.683Z,3.45
2019-03-15T16:26:23.777Z,3.53
2019-03-15T16:28:51.575Z,4.80
2019-03-15T16:31:19.314Z,3.87
2019-03-15T16:33:47.336Z,4.05
2019-03-15T16:36:15.855Z,3.60
2019-03-15T16:38:43.719Z,3.67
2019-03-15T16:41:11.578Z,3.78
2019-03-15T16:43:40.046Z,4.03
2019-03-15T16:46:08.135Z,3.33
2019-03-15T16:48:35.899Z,3.37
2019-03-15T16:51:04.054Z,2.75
2019-03-15T16:53:32.155Z,2.80
2019-03-15T16:56:00.221Z,2.78
2019-03-15T16:58:28.301Z,3.12
2019-03-15T17:00:56.437Z,3.17
2019-03-15T17:03:24.532Z,3.30
2019-03-15T17:05:52.793Z,3.50
2019-03-15T17:08:20.867Z,3.15
2019-03-15T17:10:48.623Z,4.50
2019-03-15T17:13:17.239Z,3.58
2019-03-15T17:15:45.305Z,3.00
2019-03-15T17:18:13.381Z,3.67
2019-03-15T17:20:41.242Z,3.83
2019-03-15T17:23:09.308Z,2.92
2019-03-15T17:25:37.381Z,3.28
2019-03-15T17:28:05.237Z,3.47
2019-03-15T17:30:32.987Z,3.70
2019-03-15T17:33:01.046Z,3.33
2019-03-15T17:35:28.926Z,4.35
2019-03-15T17:37:56.999Z,3.47
2019-03-15T17:40:25.096Z,3.30
2019-03-15T17:42:53.183Z,3.62
2019-03-15T17:45:21.024Z,3.15
2019-03-15T17:47:49.093Z,4.20
2019-03-15T17:50:17.315Z,3.40
2019-03-15T17:52:45.413Z,3.40
2019-03-15T17:55:13.504Z,3.85
2019-03-15T17:57:41.299Z,3.70
2019-03-15T18:00:11.098Z,3.60
2019-03-15T18:02:39.157Z,2.97
2019-03-15T18:05:07.423Z,2.58
2019-03-15T18:07:36.135Z,3.25
2019-03-15T18:10:04.289Z,3.30
2019-03-15T18:12:32.651Z,2.70
2019-03-15T18:15:00.711Z,3.37
2019-03-15T18:17:28.804Z,3.00
2019-03-15T18:19:56.890Z,2.75
2019-03-15T18:22:24.739Z,3.20
2019-03-15T18:24:52.833Z,2.92
2019-03-15T18:27:21.624Z,3.40
2019-03-15T18:29:49.885Z,3.60
2019-03-15T18:32:17.941Z,3.40
2019-03-15T18:34:46.043Z,3.35
2019-03-15T18:37:14.626Z,2.78
2019-03-15T18:39:42.352Z,2.30
2019-03-15T18:42:10.146Z,2.50
2019-03-15T18:44:38.186Z,3.37
2019-03-15T18:47:06.793Z,2.30
2019-03-15T18:49:35.173Z,2.17
2019-03-15T18:52:03.237Z,2.58
2019-03-15T18:54:31.331Z,3.45
2019-03-15T18:56:59.472Z,3.00
2019-03-15T18:59:39.374Z,3.35
2019-03-15T19:01:55.404Z,2.75
2019-03-15T19:04:23.286Z,2.35
2019-03-15T19:06:51.469Z,2.58
2019-03-15T19:09:20.248Z,2.50
2019-03-15T19:11:48.323Z,3.15
2019-03-15T19:14:16.655Z,3.03
2019-03-15T19:16:44.765Z,2.10
2019-03-15T19:19:12.825Z,2.78
2019-03-15T19:21:41.025Z,2.90
2019-03-15T19:24:09.201Z,3.17
2019-03-15T19:26:37.365Z,2.62
2019-03-15T19:29:05.452Z,2.33
2019-03-15T19:31:33.612Z,2.78
2019-03-15T19:34:01.679Z,2.33
2019-03-15T19:36:29.754Z,2.65
2019-03-15T19:38:57.808Z,2.80
2019-03-15T19:41:25.941Z,2.47
2019-03-15T19:43:53.950Z,2.47
2019-03-15T19:46:22.137Z,3.05
2019-03-15T19:48:50.195Z,3.40
2019-03-15T19:51:17.630Z,2.55
2019-03-15T19:53:46.201Z,2.50
2019-03-15T19:56:14.310Z,2.55
2019-03-15T19:58:42.581Z,2.28
2019-03-15T20:01:10.468Z,3.08
2019-03-15T20:03:44.202Z,3.28
2019-03-15T20:06:07.846Z,3.97
2019-03-15T20:08:36.035Z,2.58
2019-03-15T20:11:05.082Z,2.42
2019-03-15T20:13:33.174Z,3.08
2019-03-15T20:16:01.278Z,2.58
2019-03-15T20:18:29.410Z,2.97
2019-03-15T20:20:57.161Z,2.33
2019-03-15T20:23:25.215Z,2.87
2019-03-15T20:25:53.339Z,2.95
2019-03-15T20:28:21.471Z,2.70
2019-03-15T20:30:52.190Z,3.50
2019-03-15T20:33:18.118Z,3.15
2019-03-15T20:35:46.213Z,2.75
2019-03-15T20:38:14.308Z,2.92
2019-03-15T20:40:42.260Z,4.90
2019-03-15T20:43:10.382Z,3.40
2019-03-15T20:45:38.089Z,3.28
2019-03-15T20:48:06.689Z,3.22
2019-03-15T20:50:46.225Z,3.45
2019-03-15T20:53:09.813Z,4.05
2019-03-15T20:55:31.436Z,3.42
2019-03-15T20:57:59.350Z,3.97
2019-03-15T21:00:35.650Z,3.22
2019-03-15T21:02:56.346Z,3.67
2019-03-15T21:05:24.384Z,4.00
2019-03-15T21:07:52.457Z,3.53
2019-03-15T21:10:20.537Z,2.83
2019-03-15T21:12:49.436Z,3.65
2019-03-15T21:15:17.305Z,3.50
2019-03-15T21:17:45.486Z,3.78
2019-03-15T21:20:13.238Z,3.87
2019-03-15T21:22:41.875Z,4.43
2019-03-15T21:25:10.368Z,3.50
2019-03-15T21:27:52.302Z,3.72
2019-03-15T21:30:07.563Z,3.70
2019-03-15T21:32:36.070Z,4.05
2019-03-15T21:35:03.900Z,3.65
2019-03-15T21:37:32.005Z,3.75
2019-03-15T21:40:00.770Z,4.53
2019-03-15T21:42:28.849Z,3.22
2019-03-15T21:44:56.902Z,3.62
2019-03-15T21:47:24.983Z,4.43
2019-03-15T21:49:53.610Z,3.90
2019-03-15T21:52:21.610Z,4.50
2019-03-15T21:54:49.823Z,4.00
2019-03-15T21:57:18.085Z,3.30
2019-03-15T21:59:46.169Z,3.30
2019-03-15T22:02:14.255Z,3.72
2019-03-15T22:04:42.421Z,3.08
2019-03-15T22:07:10.578Z,4.43
2019-03-15T22:09:38.928Z,4.57
2019-03-15T22:12:07.032Z,3.40
2019-03-15T22:14:35.501Z,3.55
2019-03-15T22:17:03.677Z,3.83
2019-03-15T22:19:31.715Z,2.85
2019-03-15T22:21:59.823Z,3.60
2019-03-15T22:24:27.930Z,3.42
2019-03-15T22:26:56.025Z,2.60
2019-03-15T22:29:24.113Z,3.00
2019-03-15T22:31:52.225Z,3.60
2019-03-15T22:34:20.305Z,3.87
2019-03-15T22:36:48.440Z,2.53
2019-03-15T22:39:16.853Z,3.60
2019-03-15T22:41:44.892Z,3.75
2019-03-15T22:44:12.989Z,4.57
2019-03-15T22:46:41.450Z,3.53
2019-03-15T22:49:10.019Z,4.07
2019-03-15T22:51:37.783Z,3.67
2019-03-15T22:54:06.390Z,2.55
2019-03-15T22:56:34.533Z,3.78
2019-03-15T22:59:02.609Z,2.78
2019-03-15T23:01:30.806Z,2.80
2019-03-15T23:03:58.759Z,2.53
2019-03-15T23:06:26.640Z,2.80
2019-03-15T23:08:54.679Z,2.42
2019-03-15T23:11:22.758Z,2.17
2019-03-15T23:13:50.875Z,2.85
2019-03-15T23:16:19.404Z,2.30
2019-03-15T23:18:47.583Z,1.90
2019-03-15T23:21:15.639Z,3.15
2019-03-15T23:23:43.753Z,2.05
2019-03-15T23:26:11.519Z,2.37
2019-03-15T23:28:39.666Z,2.30
2019-03-15T23:31:08.182Z,2.15
2019-03-15T23:33:36.224Z,2.10
2019-03-15T23:36:04.328Z,2.30
2019-03-15T23:38:32.690Z,2.30
2019-03-15T23:41:00.467Z,2.22
2019-03-15T23:43:28.210Z,2.47
2019-03-15T23:45:56.547Z,2.50
2019-03-15T23:48:24.042Z,2.12
2019-03-15T23:50:52.138Z,2.20
2019-03-15T23:53:19.966Z,1.87
2019-03-15T23:55:48.043Z,2.00
2019-03-15T23:58:16.123Z,2.05
